createdAt,value
2018-07-31T00:00:41.792Z,30.78
2018-07-31T00:03:10.510Z,30.76
2018-07-31T00:05:39.085Z,30.76
2018-07-31T00:08:07.620Z,30.76
2018-07-31T00:10:36.229Z,30.75
2018-07-31T00:13:04.756Z,30.74
2018-07-31T00:15:33.284Z,30.75
2018-07-31T00:18:01.864Z,30.74
2018-07-31T00:20:30.393Z,30.73
2018-07-31T00:22:59.008Z,30.74
2018-07-31T00:25:27.590Z,30.71
2018-07-31T00:27:56.132Z,30.71
2018-07-31T00:30:24.796Z,30.70
2018-07-31T00:32:53.521Z,30.69
2018-07-31T00:35:22.095Z,30.70
2018-07-31T00:37:51.239Z,30.69
2018-07-31T00:40:19.995Z,30.68
2018-07-31T00:42:48.784Z,30.68
2018-07-31T00:45:17.577Z,30.68
2018-07-31T00:47:46.164Z,30.67
2018-07-31T00:50:14.944Z,30.68
2018-07-31T00:52:43.641Z,30.66
2018-07-31T00:55:12.372Z,30.66
2018-07-31T00:57:41.009Z,30.66
2018-07-31T01:00:09.663Z,30.66
2018-07-31T01:02:38.275Z,30.65
2018-07-31T01:05:06.889Z,30.64
2018-07-31T01:07:35.437Z,30.64
2018-07-31T01:10:03.995Z,30.64
2018-07-31T01:12:32.577Z,30.64
2018-07-31T01:15:01.221Z,30.64
2018-07-31T01:17:29.893Z,30.61
2018-07-31T01:19:58.475Z,21.60
2018-07-31T01:22:27.105Z,30.61
2018-07-31T01:24:55.757Z,30.61
2018-07-31T01:27:24.301Z,30.60
2018-07-31T01:29:52.959Z,30.61
2018-07-31T01:32:21.592Z,30.59
2018-07-31T01:34:50.137Z,30.58
2018-07-31T01:37:18.755Z,30.57
2018-07-31T01:39:47.475Z,30.57
2018-07-31T01:42:16.123Z,30.55
2018-07-31T01:44:44.768Z,30.55
2018-07-31T01:47:13.427Z,30.55
2018-07-31T01:49:42.084Z,30.55
2018-07-31T01:52:10.777Z,30.53
2018-07-31T01:54:39.437Z,30.53
2018-07-31T01:57:08.052Z,30.52
2018-07-31T01:59:36.644Z,30.52
2018-07-31T02:02:05.226Z,30.50
2018-07-31T02:04:33.870Z,30.51
2018-07-31T02:07:02.427Z,30.49
2018-07-31T02:09:31.208Z,30.49
2018-07-31T02:11:59.878Z,30.47
2018-07-31T02:14:28.428Z,30.46
2018-07-31T02:16:57.043Z,30.43
2018-07-31T02:19:25.550Z,30.43
2018-07-31T02:21:54.170Z,30.39
2018-07-31T02:24:22.912Z,30.39
2018-07-31T02:26:51.581Z,30.37
2018-07-31T02:29:25.323Z,30.36
2018-07-31T02:31:53.959Z,30.33
2018-07-31T02:34:22.553Z,30.33
2018-07-31T02:36:51.177Z,30.31
2018-07-31T02:39:19.805Z,30.29
2018-07-31T02:41:48.577Z,30.28
2018-07-31T02:44:17.315Z,30.34
2018-07-31T02:46:45.982Z,30.32
2018-07-31T02:49:14.622Z,30.30
2018-07-31T02:51:43.382Z,30.28
2018-07-31T02:54:11.996Z,30.27
2018-07-31T02:56:40.912Z,30.28
2018-07-31T02:59:09.527Z,30.26
2018-07-31T03:01:38.084Z,30.26
2018-07-31T03:04:06.840Z,30.25
2018-07-31T03:06:35.471Z,30.23
2018-07-31T03:27:45.334Z,23.88
2018-07-31T03:30:14.192Z,24.21
2018-07-31T03:32:42.981Z,24.36
2018-07-31T03:35:11.712Z,24.47
2018-07-31T03:37:40.743Z,24.34
2018-07-31T03:40:09.633Z,24.49
2018-07-31T03:42:38.691Z,24.48
2018-07-31T03:45:07.888Z,24.51
2018-07-31T03:47:36.622Z,24.54
2018-07-31T03:50:05.815Z,24.51
2018-07-31T03:52:34.584Z,24.47
2018-07-31T03:55:03.327Z,24.51
2018-07-31T03:57:32.043Z,24.44
2018-07-31T04:00:01.013Z,24.42
2018-07-31T04:02:46.004Z,24.42
2018-07-31T04:05:26.952Z,24.20
2018-07-31T04:08:15.203Z,24.25
2018-07-31T04:11:10.528Z,24.11
2018-07-31T04:17:40.268Z,24.01
2018-07-31T04:20:15.392Z,23.95
2018-07-31T04:22:43.977Z,23.94
2018-07-31T04:25:14.345Z,23.97
2018-07-31T04:27:43.059Z,23.94
2018-07-31T04:30:11.665Z,23.95
2018-07-31T04:32:41.506Z,23.94
2018-07-31T04:35:10.440Z,23.95
2018-07-31T04:37:39.431Z,23.95
2018-07-31T04:40:08.001Z,23.94
2018-07-31T04:42:39.252Z,23.94
2018-07-31T04:45:11.070Z,23.97
2018-07-31T04:47:40.340Z,23.97
2018-07-31T04:50:10.010Z,23.97
2018-07-31T04:52:38.749Z,23.95
2018-07-31T04:55:07.458Z,23.95
2018-07-31T04:57:36.011Z,23.93
2018-07-31T05:00:06.550Z,23.90
2018-07-31T05:02:35.415Z,23.87
2018-07-31T05:05:04.537Z,23.90
2018-07-31T05:07:38.026Z,24.02
2018-07-31T05:10:12.439Z,24.01
2018-07-31T05:12:42.291Z,23.85
2018-07-31T05:15:11.202Z,23.80
2018-07-31T05:17:40.607Z,23.76
2018-07-31T05:20:10.776Z,23.72
2018-07-31T05:22:41.350Z,23.85
2018-07-31T05:25:10.219Z,23.77
2018-07-31T05:27:39.313Z,23.72
2018-07-31T05:30:09.702Z,23.64
2018-07-31T05:32:39.143Z,23.72
2018-07-31T05:35:08.906Z,23.62
2018-07-31T05:37:38.009Z,23.55
2018-07-31T05:40:08.714Z,23.52
2018-07-31T05:42:37.603Z,23.52
2018-07-31T05:45:07.034Z,23.58
2018-07-31T05:47:35.738Z,23.56
2018-07-31T05:50:04.988Z,23.67
2018-07-31T05:52:34.315Z,23.55
2018-07-31T05:55:03.307Z,23.53
2018-07-31T05:57:32.205Z,23.53
2018-07-31T06:00:01.032Z,23.62
2018-07-31T06:02:29.961Z,23.69
2018-07-31T06:04:58.570Z,23.74
2018-07-31T06:07:27.478Z,23.74
2018-07-31T06:09:56.177Z,23.78
2018-07-31T06:12:25.265Z,23.78
2018-07-31T06:14:54.332Z,23.79
2018-07-31T06:17:23.604Z,23.82
2018-07-31T06:19:52.617Z,23.84
2018-07-31T06:22:21.714Z,23.88
2018-07-31T06:24:50.927Z,23.95
2018-07-31T06:27:19.690Z,24.03
2018-07-31T06:29:48.482Z,24.05
2018-07-31T06:32:17.285Z,24.09
2018-07-31T06:34:46.330Z,24.09
2018-07-31T06:37:16.232Z,23.96
2018-07-31T06:39:44.961Z,23.96
2018-07-31T06:42:13.737Z,24.02
2018-07-31T06:44:51.470Z,24.00
2018-07-31T06:47:20.680Z,24.00
2018-07-31T06:49:49.746Z,24.00
2018-07-31T06:52:18.694Z,24.03
2018-07-31T06:54:47.702Z,24.06
2018-07-31T06:57:16.511Z,24.09
2018-07-31T06:59:46.091Z,24.12
2018-07-31T07:02:15.088Z,24.14
2018-07-31T07:04:44.130Z,24.19
2018-07-31T07:07:13.274Z,24.21
2018-07-31T07:09:41.980Z,24.24
2018-07-31T07:12:11.017Z,24.28
2018-07-31T07:14:39.938Z,24.31
2018-07-31T07:17:09.118Z,24.35
2018-07-31T07:19:37.991Z,24.40
2018-07-31T07:22:07.166Z,24.45
2018-07-31T07:24:36.051Z,24.49
2018-07-31T07:27:04.994Z,24.52
2018-07-31T07:29:33.932Z,24.57
2018-07-31T07:32:03.027Z,24.63
2018-07-31T07:34:31.678Z,24.68
2018-07-31T07:37:02.183Z,24.73
2018-07-31T07:39:31.309Z,24.78
2018-07-31T07:42:00.125Z,24.81
2018-07-31T07:44:29.044Z,24.86
2018-07-31T07:46:58.095Z,24.89
2018-07-31T07:49:27.908Z,24.92
2018-07-31T07:51:56.998Z,24.94
2018-07-31T07:54:26.099Z,25.01
2018-07-31T07:56:55.542Z,25.02
2018-07-31T07:59:24.472Z,25.05
2018-07-31T08:01:53.345Z,25.09
2018-07-31T08:04:22.156Z,25.10
2018-07-31T08:06:51.856Z,25.13
2018-07-31T08:09:20.551Z,25.13
2018-07-31T08:11:49.770Z,25.17
2018-07-31T08:14:18.517Z,25.20
2018-07-31T08:16:47.459Z,25.22
2018-07-31T08:19:16.192Z,25.24
2018-07-31T08:21:44.773Z,25.28
2018-07-31T08:24:13.341Z,25.30
2018-07-31T08:26:41.897Z,25.34
2018-07-31T08:29:10.403Z,25.36
2018-07-31T08:31:38.922Z,25.38
2018-07-31T08:34:07.432Z,25.41
2018-07-31T08:36:36.069Z,25.42
2018-07-31T08:39:07.732Z,25.45
2018-07-31T08:41:36.429Z,25.47
2018-07-31T08:44:05.470Z,25.49
2018-07-31T08:46:34.005Z,25.51
2018-07-31T08:49:02.531Z,25.53
2018-07-31T08:51:31.202Z,25.55
2018-07-31T08:54:00.038Z,25.58
2018-07-31T08:56:28.539Z,25.61
2018-07-31T08:58:57.055Z,25.62
2018-07-31T09:01:25.549Z,25.66
2018-07-31T09:03:54.097Z,25.69
2018-07-31T09:06:22.638Z,25.72
2018-07-31T09:08:51.313Z,25.75
2018-07-31T09:11:19.877Z,25.78
2018-07-31T09:13:48.427Z,25.80
2018-07-31T09:16:16.944Z,25.84
2018-07-31T09:18:45.475Z,25.87
2018-07-31T09:21:13.974Z,25.90
2018-07-31T09:23:42.543Z,25.95
2018-07-31T09:26:11.074Z,25.97
2018-07-31T09:28:39.585Z,26.00
2018-07-31T09:31:13.840Z,26.04
2018-07-31T09:33:42.749Z,26.07
2018-07-31T09:36:11.470Z,26.11
2018-07-31T09:38:40.000Z,26.14
2018-07-31T09:41:08.527Z,26.18
2018-07-31T09:43:37.142Z,26.22
2018-07-31T09:46:05.705Z,26.28
2018-07-31T09:48:34.283Z,26.32
2018-07-31T09:51:02.858Z,26.35
2018-07-31T09:53:31.386Z,26.38
2018-07-31T09:56:00.029Z,26.43
2018-07-31T09:58:28.669Z,26.45
2018-07-31T10:01:02.190Z,26.51
2018-07-31T10:03:30.794Z,26.54
2018-07-31T10:05:59.430Z,26.59
2018-07-31T10:08:28.093Z,26.64
2018-07-31T10:10:56.831Z,26.68
2018-07-31T10:13:25.490Z,26.73
2018-07-31T10:15:54.207Z,26.77
2018-07-31T10:18:22.950Z,26.83
2018-07-31T10:20:51.620Z,26.88
2018-07-31T10:23:20.280Z,26.91
2018-07-31T10:25:48.785Z,26.98
2018-07-31T10:28:17.280Z,27.04
2018-07-31T10:30:45.935Z,27.08
2018-07-31T10:33:14.396Z,27.14
2018-07-31T10:35:42.948Z,27.18
2018-07-31T10:38:11.445Z,27.23
2018-07-31T10:40:40.124Z,27.28
2018-07-31T10:43:08.778Z,27.33
2018-07-31T10:45:37.386Z,27.39
2018-07-31T10:48:06.062Z,27.44
2018-07-31T10:50:34.626Z,27.48
2018-07-31T10:53:03.137Z,27.54
2018-07-31T10:55:31.690Z,27.59
2018-07-31T10:58:03.829Z,27.64
2018-07-31T11:00:33.094Z,27.68
2018-07-31T11:03:14.422Z,27.73
2018-07-31T14:34:19.963Z,29.33
2018-07-31T14:43:59.440Z,29.48
2018-07-31T14:46:40.305Z,29.44
2018-07-31T20:36:03.957Z,30.07
2018-07-31T20:38:33.798Z,30.03
2018-07-31T20:41:03.137Z,30.00
2018-07-31T20:43:32.292Z,29.97
2018-07-31T20:46:02.153Z,29.94
2018-07-31T20:48:31.642Z,29.92
2018-07-31T20:51:00.793Z,29.91
2018-07-31T20:53:30.468Z,29.87
2018-07-31T20:55:59.874Z,29.85
2018-07-31T20:58:29.300Z,29.84
2018-07-31T21:00:58.457Z,29.82
2018-07-31T21:03:27.905Z,29.78
2018-07-31T21:05:58.167Z,29.75
2018-07-31T21:08:26.811Z,29.72
2018-07-31T21:10:55.421Z,29.71
2018-07-31T21:13:24.467Z,29.69
2018-07-31T21:15:53.108Z,29.67
2018-07-31T21:18:21.802Z,29.65
2018-07-31T21:20:50.437Z,29.63
2018-07-31T21:23:19.281Z,29.61
2018-07-31T21:25:47.939Z,29.59
2018-07-31T21:28:16.615Z,29.57
2018-07-31T21:30:45.333Z,29.55
2018-07-31T21:33:14.017Z,29.52
2018-07-31T21:35:42.689Z,29.48
2018-07-31T21:38:12.031Z,29.44
2018-07-31T21:40:42.505Z,29.42
2018-07-31T21:43:12.116Z,29.40
2018-07-31T21:45:41.089Z,29.37
2018-07-31T21:48:09.974Z,29.36
2018-07-31T21:50:39.198Z,29.33
2018-07-31T21:53:07.796Z,29.31
2018-07-31T21:55:37.354Z,29.28
2018-07-31T21:58:06.089Z,29.27
2018-07-31T22:00:40.026Z,29.24
2018-07-31T22:03:08.746Z,29.21
2018-07-31T22:05:37.833Z,29.20
2018-07-31T22:08:06.416Z,29.16
2018-07-31T22:10:34.992Z,29.14
2018-07-31T22:13:03.713Z,29.11
2018-07-31T22:15:32.409Z,29.08
2018-07-31T22:18:01.046Z,29.06
2018-07-31T22:20:29.650Z,29.03
2018-07-31T22:22:58.339Z,29.01
2018-07-31T22:25:27.099Z,29.00
2018-07-31T22:27:55.785Z,29.00
2018-07-31T22:30:24.515Z,29.00
2018-07-31T22:32:53.134Z,28.99
2018-07-31T22:35:21.893Z,28.97
2018-07-31T22:37:50.584Z,28.96
2018-07-31T22:40:19.252Z,28.95
2018-07-31T22:42:47.849Z,28.92
2018-07-31T22:45:17.362Z,28.91
2018-07-31T22:47:47.444Z,28.83
2018-07-31T22:50:16.037Z,28.88
2018-07-31T22:52:44.758Z,28.86
2018-07-31T22:55:13.518Z,28.83
2018-07-31T22:57:42.296Z,28.82
2018-07-31T23:00:11.089Z,28.78
2018-07-31T23:02:41.180Z,28.77
2018-07-31T23:05:11.490Z,28.74
2018-07-31T23:07:40.188Z,28.71
2018-07-31T23:10:09.457Z,28.69
2018-07-31T23:12:38.663Z,28.60
2018-07-31T23:15:07.868Z,28.64
2018-07-31T23:17:36.417Z,28.58
2018-07-31T23:20:07.248Z,28.60
2018-07-31T23:22:49.609Z,28.58
2018-07-31T23:25:18.280Z,28.54
2018-07-31T23:27:46.881Z,28.50
2018-07-31T23:30:15.545Z,28.47
2018-07-31T23:32:44.111Z,28.45
2018-07-31T23:35:12.738Z,28.43
2018-07-31T23:37:41.482Z,28.39
2018-07-31T23:40:10.188Z,28.37
2018-07-31T23:42:38.941Z,28.30
2018-07-31T23:45:07.707Z,28.33
2018-07-31T23:47:36.505Z,28.24
2018-07-31T23:50:05.245Z,28.28
2018-07-31T23:52:34.125Z,28.21
2018-07-31T23:55:02.812Z,28.24
2018-07-31T23:57:31.628Z,28.21
